Current Weather



TAF Data Links

METAR Data Links

Latest METAR/TAF Data


Available data for KAUS from the past 2 hours
AUSTIN, TX
Metar
KAUS 220353Z 15007KT 10SM SCT250 27/22 A3002 RMK AO2 SLP153 T02720217 $

03:53 UTC

Wind: 150° 7kt

Visibility: 10 SM

Sky: SCT 25000 ft

Temp: 27 deg C / 80.6 deg F

Dewpoint: 22 deg C / 71.6 deg F

Pressure: 30.02 inHg

TAF
KAUS 212320Z 2200/2306 14011KT P6SM VCSH SCT060 SCT250 FM220100 14010KT P6SM FEW030 SCT250 FM220600 15007KT P6SM BKN012 BKN025 FM221600 18010KT P6SM OVC030 FM221900 16009KT P6SM SCT040 BKN120


Available data for KEDC from the past 2 hours
AUSTIN EXEC, TX
Metar
KEDC 220355Z AUTO 15009KT 10SM FEW025 SCT033 27/22 A3003 RMK AO2

03:55 UTC

Wind: 150° 9kt

Visibility: 10 SM

Sky: FEW 2500 ft

Temp: 27 deg C / 80.6 deg F

Dewpoint: 22 deg C / 71.6 deg F

Pressure: 30.03 inHg



Available data for KRYW from the past 2 hours
LAGO VISTA, TX
Metar
KRYW 220355Z AUTO 15009G16KT 10SM SCT029 26/21 A3005 RMK AO2 T02610211

03:55 UTC

Wind: 150° 9kt

Visibility: 10 SM

Sky: SCT 2900 ft

Temp: 26 deg C / 78.8 deg F

Dewpoint: 21 deg C / 69.8 deg F

Pressure: 30.05 inHg